Time;durP1;ratioP1;P1;durP2;ratioP2;P2;SDS_P1;SDS_P2;PMS_P1;PMS_P2;Temp;Humidity;BMP_temperature;BMP_pressure;BME280_temperature;BME280_humidity;BME280_pressure;Samples;Min_cycle;Max_cycle;Signal;HPM_P1;HPM_P2
2021/12/04 00:00:08;;;;;;;;;;;3.30;99.90;3.90;99122.00;;;;348682;27;88042;-88
2021/12/04 00:00:23;;;;;;;;;;;3.30;99.90;3.90;99110.00;;;;345776;28;83546;-88
2021/12/04 00:00:45;;;;;;;;;;;3.30;99.90;3.90;99119.00;;;;344838;28;90517;-88
2021/12/04 00:00:59;;;;;;;;;;;3.40;99.90;4.00;99125.00;;;;346036;28;82931;-88
2021/12/04 00:01:11;;;;;;;;;;;3.40;99.90;4.00;99120.00;;;;345479;28;90653;-87
2021/12/04 00:01:24;;;;;;;;;;;3.40;99.90;3.90;99120.00;;;;348736;27;83489;-88
2021/12/04 00:01:39;;;;;;;;;;;3.40;99.90;3.90;99109.00;;;;346876;28;87052;-88
2021/12/04 00:01:51;;;;;;;;;;;3.40;99.90;3.90;99117.00;;;;347491;28;83339;-86
2021/12/04 00:02:05;;;;;;;;;;;3.40;99.90;4.00;99111.00;;;;347185;28;87784;-88
2021/12/04 00:02:17;;;;;;;;;;;3.40;99.90;3.90;99113.00;;;;347247;28;83132;-87
2021/12/04 00:02:29;;;;;;;;;;;3.30;99.90;3.90;99113.00;;;;346832;28;86815;-88
2021/12/04 00:02:41;;;;;;;;;;;3.40;99.90;3.90;99117.00;;;;346159;28;82476;-87
2021/12/04 00:02:53;;;;;;;;;;;3.40;99.90;3.90;99106.00;;;;348147;27;91388;-88
2021/12/04 00:03:05;;;;;;;;;;;3.30;99.90;4.00;99109.00;;;;346345;28;83204;-88
2021/12/04 00:03:16;;;;;;;;;;;3.30;99.90;4.00;99107.00;;;;347067;28;89437;-87
2021/12/04 00:03:29;;;;;;;;;;;3.30;99.90;3.90;99098.00;;;;348133;27;83524;-88
2021/12/04 00:03:41;;;;;;;;;;;3.30;99.90;3.90;99103.00;;;;347084;28;87954;-88
2021/12/04 00:03:53;;;;;;;;;;;3.30;99.90;3.90;99102.00;;;;347520;28;83373;-87
2021/12/04 00:04:05;;;;;;;;;;;3.30;99.90;3.90;99105.00;;;;347137;28;88673;-88
2021/12/04 00:04:37;;;;;;;;;;;3.30;99.90;3.90;99104.00;;;;346283;28;83302;-88
2021/12/04 00:04:52;;;;;;;;;;;3.40;99.90;4.00;99108.00;;;;345515;28;89683;-88
2021/12/04 00:05:05;;;;;;;;;;;3.40;99.90;3.90;99102.00;;;;347812;28;83085;-88
2021/12/04 00:05:18;;;;;;;;;;;3.40;99.90;3.90;99106.00;;;;347118;28;88476;-87
2021/12/04 00:05:30;;;;;;;;;;;3.30;99.90;4.00;99102.00;;;;348745;27;84325;-87
2021/12/04 00:05:47;;;;;;;;;;;3.30;99.90;4.00;99090.00;;;;347178;28;88007;-87
2021/12/04 00:06:05;;;;;;;;;;;3.40;99.90;4.00;99102.00;;;;348975;27;83456;-87
2021/12/04 00:06:28;;;;;;;;;;;3.40;99.90;4.00;99101.00;;;;347220;28;88372;-87
2021/12/04 00:06:41;;;;;;;;;;;3.30;99.90;4.00;99098.00;;;;347489;28;83493;-87
2021/12/04 00:06:53;;;;;;;;;;;3.30;99.90;4.00;99104.00;;;;347137;28;89279;-87
2021/12/04 00:07:05;;;;;;;;;;;3.30;99.90;4.00;99102.00;;;;349024;27;82475;-87
2021/12/04 00:07:17;;;;;;;;;;;3.40;99.90;3.90;99097.00;;;;345765;28;88702;-86
2021/12/04 00:07:32;;;;;;;;;;;3.30;99.90;3.90;99100.00;;;;347375;28;83465;-87
2021/12/04 00:07:44;;;;;;;;;;;3.30;99.90;3.90;99104.00;;;;345729;28;90126;-87
2021/12/04 00:07:56;;;;;;;;;;;3.40;99.90;3.90;99103.00;;;;345920;28;84006;-87
2021/12/04 00:08:08;;;;;;;;;;;3.30;99.90;3.90;99102.00;;;;344412;28;88777;-86
2021/12/04 00:08:21;;;;;;;;;;;3.30;99.90;4.00;99100.00;;;;345973;28;83303;-87
2021/12/04 00:08:35;;;;;;;;;;;3.40;99.90;4.00;99111.00;;;;345486;28;92096;-87
2021/12/04 00:08:47;;;;;;;;;;;3.40;99.90;3.90;99099.00;;;;346273;28;82498;-87
2021/12/04 00:09:04;;;;;;;;;;;3.40;99.90;4.00;99096.00;;;;347256;28;89631;-86
2021/12/04 00:09:18;;;;;;;;;;;3.30;99.90;4.00;99093.00;;;;347552;28;83323;-86
2021/12/04 00:09:30;;;;;;;;;;;3.40;99.90;4.00;99101.00;;;;349467;27;91377;-86
2021/12/04 00:09:45;;;;;;;;;;;3.40;99.90;4.00;99099.00;;;;348785;27;82598;-86
2021/12/04 00:10:03;;;;;;;;;;;3.40;99.90;4.00;99102.00;;;;346986;28;89214;-86
2021/12/04 00:10:21;;;;;;;;;;;3.30;99.90;3.90;99105.00;;;;347717;28;83275;-87
2021/12/04 00:10:32;;;;;;;;;;;3.40;99.90;3.90;99099.00;;;;345295;28;89367;-86
2021/12/04 00:10:44;;;;;;;;;;;3.40;99.90;4.00;99093.00;;;;344804;28;83143;-86
2021/12/04 00:10:56;;;;;;;;;;;3.30;99.90;3.90;99099.00;;;;347187;28;89286;-86
2021/12/04 00:11:08;;;;;;;;;;;3.30;99.90;3.90;99094.00;;;;346231;28;82337;-86
2021/12/04 00:11:20;;;;;;;;;;;3.30;99.90;4.00;99097.00;;;;348294;27;91349;-86
2021/12/04 00:11:33;;;;;;;;;;;3.30;99.90;3.90;99094.00;;;;347568;28;83403;-86
2021/12/04 00:11:53;;;;;;;;;;;3.30;99.90;3.90;99094.00;;;;346950;28;90253;-86
2021/12/04 00:12:06;;;;;;;;;;;3.30;99.90;3.90;99099.00;;;;346281;28;83343;-86
2021/12/04 00:12:18;;;;;;;;;;;3.30;99.90;3.90;99094.00;;;;348231;27;93182;-86
2021/12/04 00:12:31;;;;;;;;;;;3.30;99.90;3.90;99097.00;;;;345704;28;83386;-86
2021/12/04 00:12:43;;;;;;;;;;;3.30;99.90;4.00;99091.00;;;;346940;28;87796;-86
2021/12/04 00:12:55;;;;;;;;;;;3.30;99.90;3.90;99093.00;;;;346233;28;83671;-86
2021/12/04 00:13:07;;;;;;;;;;;3.30;99.90;3.90;99097.00;;;;345898;28;89037;-86
2021/12/04 00:13:19;;;;;;;;;;;3.30;99.90;3.90;99090.00;;;;347467;28;83442;-86
2021/12/04 00:13:31;;;;;;;;;;;3.30;99.90;3.90;99097.00;;;;345635;28;88398;-86
2021/12/04 00:13:43;;;;;;;;;;;3.30;99.90;3.90;99094.00;;;;347099;28;83644;-86
2021/12/04 00:13:55;;;;;;;;;;;3.30;99.90;3.90;99089.00;;;;346990;27;89794;-85
2021/12/04 00:14:07;;;;;;;;;;;3.30;99.90;4.00;99094.00;;;;346166;28;83214;-86
2021/12/04 00:14:19;;;;;;;;;;;3.30;99.90;3.90;99094.00;;;;345726;28;89222;-86
2021/12/04 00:14:33;;;;;;;;;;;3.30;99.90;3.90;99094.00;;;;344785;28;83336;-86
2021/12/04 00:14:45;;;;;;;;;;;3.30;99.90;3.90;99097.00;;;;347244;28;88807;-86
2021/12/04 00:14:57;;;;;;;;;;;3.30;99.90;3.90;99091.00;;;;346218;28;83399;-86
2021/12/04 00:15:09;;;;;;;;;;;3.30;99.90;3.90;99085.00;;;;345904;28;86711;-86
2021/12/04 00:15:21;;;;;;;;;;;3.30;99.90;4.00;99087.00;;;;346224;28;83569;-86
2021/12/04 00:15:34;;;;;;;;;;;3.30;99.90;4.00;99086.00;;;;348164;27;86696;-87
2021/12/04 00:15:46;;;;;;;;;;;3.30;99.90;4.00;99091.00;;;;348845;27;82534;-86
2021/12/04 00:15:58;;;;;;;;;;;3.30;99.90;4.00;99085.00;;;;345766;28;89552;-86
2021/12/04 00:16:10;;;;;;;;;;;3.30;99.90;4.00;99084.00;;;;347455;28;83535;-86
2021/12/04 00:16:22;;;;;;;;;;;3.30;99.90;4.00;99083.00;;;;346972;28;91404;-86
2021/12/04 00:16:34;;;;;;;;;;;3.30;99.90;4.00;99088.00;;;;350138;27;83482;-86
2021/12/04 00:16:46;;;;;;;;;;;3.30;99.90;4.00;99086.00;;;;346935;27;89625;-86
2021/12/04 00:16:58;;;;;;;;;;;3.30;99.90;4.00;99084.00;;;;348705;27;83528;-86
2021/12/04 00:17:10;;;;;;;;;;;3.30;99.90;4.00;99075.00;;;;347270;28;89694;-86
2021/12/04 00:17:22;;;;;;;;;;;3.30;99.90;4.00;99079.00;;;;347408;28;83579;-86
2021/12/04 00:17:35;;;;;;;;;;;3.30;99.90;4.00;99075.00;;;;347156;28;88891;-87
2021/12/04 00:17:47;;;;;;;;;;;3.30;99.90;3.90;99079.00;;;;350203;27;82595;-87
2021/12/04 00:18:00;;;;;;;;;;;3.30;99.90;4.00;99080.00;;;;348337;27;89017;-87
2021/12/04 00:18:12;;;;;;;;;;;3.30;99.90;4.00;99075.00;;;;347681;28;83412;-86
2021/12/04 00:18:24;;;;;;;;;;;3.30;99.90;4.00;99079.00;;;;345665;28;93305;-87
2021/12/04 00:18:36;;;;;;;;;;;3.30;99.90;4.00;99079.00;;;;347472;27;83527;-87
2021/12/04 00:18:48;;;;;;;;;;;3.30;99.90;4.00;99078.00;;;;345727;28;91475;-87
2021/12/04 00:19:01;;;;;;;;;;;3.30;99.90;3.90;99086.00;;;;344898;28;82265;-87
2021/12/04 00:19:12;;;;;;;;;;;3.30;99.90;4.00;99077.00;;;;347207;27;89414;-85
2021/12/04 00:19:24;;;;;;;;;;;3.30;99.90;4.00;99075.00;;;;347705;28;83050;-87
2021/12/04 00:19:36;;;;;;;;;;;3.30;99.90;4.00;99084.00;;;;346911;28;90837;-87
2021/12/04 00:19:48;;;;;;;;;;;3.30;99.90;4.00;99079.00;;;;347689;28;82446;-87
2021/12/04 00:20:00;;;;;;;;;;;3.30;99.90;3.90;99080.00;;;;346860;28;91650;-87
2021/12/04 00:20:11;;;;;;;;;;;3.30;99.90;4.00;99093.00;;;;346294;28;83322;-87
2021/12/04 00:20:24;;;;;;;;;;;3.30;99.90;4.00;99085.00;;;;347159;28;88442;-87
2021/12/04 00:20:38;;;;;;;;;;;3.30;99.90;4.00;99077.00;;;;344793;28;82461;-87
2021/12/04 00:20:50;;;;;;;;;;;3.30;99.90;4.00;99088.00;;;;348319;27;89678;-87
2021/12/04 00:21:02;;;;;;;;;;;3.30;99.90;4.00;99078.00;;;;347620;28;83265;-87
2021/12/04 00:21:14;;;;;;;;;;;3.30;99.90;4.00;99089.00;;;;347228;28;89375;-87
2021/12/04 00:21:25;;;;;;;;;;;3.30;99.90;4.00;99087.00;;;;347112;28;82485;-87
2021/12/04 00:21:37;;;;;;;;;;;3.30;99.90;4.00;99084.00;;;;348411;27;91843;-87
2021/12/04 00:21:50;;;;;;;;;;;3.30;99.90;4.00;99084.00;;;;347738;28;83343;-87
2021/12/04 00:22:02;;;;;;;;;;;3.30;99.90;4.00;99082.00;;;;348564;27;89346;-87
2021/12/04 00:22:14;;;;;;;;;;;3.30;99.90;3.90;99079.00;;;;347716;28;82290;-87
2021/12/04 00:22:25;;;;;;;;;;;3.30;99.90;3.90;99083.00;;;;345816;28;88952;-86
2021/12/04 00:22:37;;;;;;;;;;;3.30;99.90;3.90;99078.00;;;;349058;27;83415;-87
2021/12/04 00:22:49;;;;;;;;;;;3.30;99.90;4.00;99081.00;;;;347147;28;88310;-87
2021/12/04 00:23:01;;;;;;;;;;;3.30;99.90;4.00;99075.00;;;;348748;27;83395;-87
2021/12/04 00:23:12;;;;;;;;;;;3.30;99.90;4.00;99076.00;;;;348260;27;91397;-87
2021/12/04 00:23:24;;;;;;;;;;;3.40;99.90;3.90;99075.00;;;;348784;27;83422;-87
2021/12/04 00:23:36;;;;;;;;;;;3.30;99.90;4.00;99084.00;;;;345860;28;89005;-87
2021/12/04 00:23:48;;;;;;;;;;;3.30;99.90;4.00;99078.00;;;;347603;28;83516;-87
2021/12/04 00:23:59;;;;;;;;;;;3.30;99.90;4.00;99072.00;;;;347149;27;89307;-87
2021/12/04 00:24:11;;;;;;;;;;;3.30;99.90;3.90;99075.00;;;;344928;28;83269;-87
2021/12/04 00:24:24;;;;;;;;;;;3.30;99.90;3.90;99071.00;;;;345751;28;89695;-87
2021/12/04 00:24:36;;;;;;;;;;;3.30;99.90;4.00;99065.00;;;;347674;28;82347;-87
2021/12/04 00:24:47;;;;;;;;;;;3.30;99.90;3.90;99061.00;;;;345659;28;89082;-88
2021/12/04 00:24:59;;;;;;;;;;;3.30;99.90;4.00;99068.00;;;;348616;27;83580;-88
2021/12/04 00:25:11;;;;;;;;;;;3.30;99.90;4.00;99060.00;;;;345624;28;90682;-87
2021/12/04 00:25:23;;;;;;;;;;;3.30;99.90;4.10;99068.00;;;;346007;28;82584;-88
2021/12/04 00:25:37;;;;;;;;;;;3.30;99.90;4.00;99075.00;;;;347097;28;87327;-87
2021/12/04 00:25:49;;;;;;;;;;;3.30;99.90;3.90;99070.00;;;;349020;27;83788;-87
2021/12/04 00:26:04;;;;;;;;;;;3.30;99.90;4.00;99065.00;;;;347231;28;87738;-87
2021/12/04 00:26:16;;;;;;;;;;;3.40;99.90;4.00;99070.00;;;;347717;28;83292;-88
2021/12/04 00:26:27;;;;;;;;;;;3.40;99.90;4.00;99065.00;;;;346671;28;88799;-87
2021/12/04 00:26:39;;;;;;;;;;;3.30;99.90;4.00;99060.00;;;;346835;28;83407;-87
2021/12/04 00:26:51;;;;;;;;;;;3.30;99.90;4.00;99068.00;;;;345792;28;88450;-87
2021/12/04 00:27:04;;;;;;;;;;;3.30;99.90;4.00;99068.00;;;;347657;28;83367;-87
2021/12/04 00:27:16;;;;;;;;;;;3.30;99.90;4.00;99078.00;;;;348229;27;91404;-87
2021/12/04 00:27:27;;;;;;;;;;;3.30;99.90;4.00;99074.00;;;;349060;27;83073;-87
2021/12/04 00:27:39;;;;;;;;;;;3.40;99.90;4.00;99072.00;;;;348148;27;90566;-87
2021/12/04 00:27:52;;;;;;;;;;;3.30;99.90;4.00;99075.00;;;;348998;27;83349;-86
2021/12/04 00:28:04;;;;;;;;;;;3.30;99.90;4.00;99063.00;;;;347149;28;89204;-87
2021/12/04 00:28:16;;;;;;;;;;;3.30;99.90;4.00;99060.00;;;;346315;28;83393;-87
2021/12/04 00:28:28;;;;;;;;;;;3.40;99.90;4.00;99061.00;;;;349655;27;93129;-86
2021/12/04 00:28:40;;;;;;;;;;;3.30;99.90;4.00;99061.00;;;;348936;27;82364;-87
2021/12/04 00:28:52;;;;;;;;;;;3.40;99.90;4.00;99065.00;;;;347189;28;87674;-87
2021/12/04 00:29:04;;;;;;;;;;;3.40;99.90;4.00;99054.00;;;;347589;28;83193;-87
2021/12/04 00:29:16;;;;;;;;;;;3.30;99.90;4.00;99060.00;;;;347012;27;90688;-86
2021/12/04 00:29:27;;;;;;;;;;;3.30;99.90;3.90;99065.00;;;;346294;28;83155;-87
2021/12/04 00:29:39;;;;;;;;;;;3.40;99.90;3.90;99053.00;;;;347152;28;89780;-86
2021/12/04 00:29:51;;;;;;;;;;;3.30;99.90;4.00;99066.00;;;;347589;28;83419;-86
2021/12/04 00:30:03;;;;;;;;;;;3.40;99.90;4.00;99060.00;;;;347193;28;88003;-87
2021/12/04 00:30:15;;;;;;;;;;;3.40;99.90;4.00;99067.00;;;;344858;28;83207;-87
2021/12/04 00:30:27;;;;;;;;;;;3.30;99.90;4.00;99069.00;;;;343814;28;89064;-86
2021/12/04 00:30:39;;;;;;;;;;;3.40;99.90;4.00;99061.00;;;;345428;28;82647;-86
2021/12/04 00:30:51;;;;;;;;;;;3.40;99.90;4.00;99071.00;;;;347244;28;89048;-86
2021/12/04 00:31:08;;;;;;;;;;;3.40;99.90;4.00;99061.00;;;;347665;28;83249;-87
2021/12/04 00:31:20;;;;;;;;;;;3.40;99.90;4.00;99064.00;;;;346876;28;92067;-87
2021/12/04 00:31:32;;;;;;;;;;;3.40;99.90;4.00;99061.00;;;;348896;27;83068;-86
2021/12/04 00:31:49;;;;;;;;;;;3.40;99.90;4.10;99072.00;;;;347212;28;89054;-87
2021/12/04 00:32:12;;;;;;;;;;;3.40;99.90;4.10;99064.00;;;;346228;28;83591;-87
2021/12/04 00:32:36;;;;;;;;;;;3.40;99.90;4.00;99060.00;;;;347293;28;87920;-86
2021/12/04 00:32:57;;;;;;;;;;;3.40;99.90;4.00;99066.00;;;;347677;28;82251;-86
2021/12/04 00:33:16;;;;;;;;;;;3.40;99.90;4.00;99065.00;;;;347080;28;90132;-86
2021/12/04 00:33:31;;;;;;;;;;;3.40;99.90;4.10;99067.00;;;;347644;28;82389;-86
2021/12/04 00:33:45;;;;;;;;;;;3.40;99.90;4.00;99064.00;;;;348685;27;87784;-86
2021/12/04 00:33:57;;;;;;;;;;;3.40;99.90;4.00;99063.00;;;;345667;28;82427;-86
2021/12/04 00:34:09;;;;;;;;;;;3.40;99.90;4.00;99062.00;;;;345788;28;89146;-86
2021/12/04 00:34:25;;;;;;;;;;;3.40;99.90;4.00;99061.00;;;;345944;28;83370;-86
2021/12/04 00:34:42;;;;;;;;;;;3.40;99.90;3.90;99065.00;;;;345733;28;88474;-86
2021/12/04 00:35:05;;;;;;;;;;;3.30;99.90;4.00;99068.00;;;;347514;28;83364;-86
2021/12/04 00:35:33;;;;;;;;;;;3.40;99.90;4.00;99067.00;;;;347071;28;89447;-87
2021/12/04 00:37:38;;;;;;;;;;;3.40;99.90;4.00;99076.00;;;;343173;28;82665;-86
2021/12/04 00:49:21;;;;;;;;;;;3.40;99.90;4.00;99055.00;;;;336641;28;83520;-88
2021/12/04 00:49:32;;;;;;;;;;;3.40;99.90;4.00;99047.00;;;;338998;28;89607;-87
2021/12/04 00:49:44;;;;;;;;;;;3.40;99.90;4.10;99052.00;;;;339558;28;82349;-87
2021/12/04 00:49:56;;;;;;;;;;;3.40;99.90;4.00;99047.00;;;;336120;28;92903;-87
2021/12/04 00:50:08;;;;;;;;;;;3.40;99.90;4.10;99051.00;;;;338051;28;83582;-87
2021/12/04 00:50:20;;;;;;;;;;;3.40;99.90;4.10;99049.00;;;;339022;28;88506;-88
2021/12/04 00:50:32;;;;;;;;;;;3.40;99.90;4.10;99043.00;;;;332839;29;83248;-87
2021/12/04 00:50:44;;;;;;;;;;;3.40;99.90;4.10;99037.00;;;;332477;29;89283;-88
2021/12/04 00:50:56;;;;;;;;;;;3.40;99.90;4.10;99041.00;;;;336759;28;82554;-88
2021/12/04 00:51:07;;;;;;;;;;;3.50;99.90;4.00;99037.00;;;;337666;28;88815;-88
2021/12/04 00:51:19;;;;;;;;;;;3.40;99.90;4.00;99043.00;;;;338026;28;83428;-87
2021/12/04 00:51:31;;;;;;;;;;;3.40;99.90;4.00;99040.00;;;;336345;28;87742;-87
2021/12/04 00:51:50;;;;;;;;;;;3.40;99.90;3.90;99051.00;;;;337853;28;82454;-87
2021/12/04 00:52:02;;;;;;;;;;;3.40;99.90;4.00;99034.00;;;;336231;28;91130;-88
2021/12/04 00:52:14;;;;;;;;;;;3.40;99.90;4.00;99040.00;;;;335244;29;83750;-87
2021/12/04 00:52:26;;;;;;;;;;;3.40;99.90;4.00;99040.00;;;;336341;28;89183;-88
2021/12/04 00:52:42;;;;;;;;;;;3.40;99.90;4.00;99053.00;;;;339371;28;82362;-88
2021/12/04 00:52:55;;;;;;;;;;;3.40;99.90;4.10;99060.00;;;;333752;29;89254;-87
2021/12/04 00:53:07;;;;;;;;;;;3.40;99.90;4.10;99052.00;;;;334939;29;83523;-87
2021/12/04 00:53:18;;;;;;;;;;;3.50;99.90;4.00;99056.00;;;;336285;28;89174;-87
2021/12/04 00:53:30;;;;;;;;;;;3.50;99.90;4.00;99055.00;;;;338157;28;82384;-87
2021/12/04 00:53:42;;;;;;;;;;;3.40;99.90;4.00;99056.00;;;;337399;28;91825;-87
2021/12/04 00:53:54;;;;;;;;;;;3.50;99.90;4.00;99060.00;;;;337828;28;83274;-87
2021/12/04 00:54:09;;;;;;;;;;;3.40;99.90;4.00;99056.00;;;;338917;28;90556;-87
2021/12/04 00:54:22;;;;;;;;;;;3.40;99.90;4.00;99058.00;;;;336656;28;85569;-87
2021/12/04 00:54:34;;;;;;;;;;;3.40;99.90;4.00;99049.00;;;;336235;28;90101;-87
2021/12/04 00:54:46;;;;;;;;;;;3.40;99.90;4.00;99049.00;;;;336848;28;82388;-88
2021/12/04 00:54:57;;;;;;;;;;;3.40;99.90;4.00;99044.00;;;;335094;29;88389;-87
2021/12/04 00:55:09;;;;;;;;;;;3.40;99.90;4.10;99060.00;;;;333895;29;82565;-87
2021/12/04 00:55:21;;;;;;;;;;;3.40;99.90;4.10;99051.00;;;;336301;28;87812;-87
2021/12/04 00:55:33;;;;;;;;;;;3.40;99.90;4.10;99047.00;;;;337916;28;83288;-87
2021/12/04 00:55:45;;;;;;;;;;;3.40;99.90;4.10;99049.00;;;;336344;28;88967;-87
2021/12/04 00:55:56;;;;;;;;;;;3.40;99.90;4.10;99053.00;;;;335555;29;82431;-87
2021/12/04 00:56:08;;;;;;;;;;;3.40;99.90;4.10;99049.00;;;;336326;28;89915;-87
2021/12/04 00:56:21;;;;;;;;;;;3.50;99.90;4.10;99038.00;;;;332884;29;83436;-87
2021/12/04 00:56:33;;;;;;;;;;;3.40;99.90;4.10;99051.00;;;;335020;29;89789;-87
2021/12/04 00:56:45;;;;;;;;;;;3.40;99.90;4.10;99044.00;;;;336718;28;83305;-87
2021/12/04 00:56:57;;;;;;;;;;;3.40;99.90;4.10;99043.00;;;;336340;28;89255;-87
2021/12/04 00:57:09;;;;;;;;;;;3.50;99.90;4.10;99043.00;;;;337840;28;82412;-87
2021/12/04 00:57:22;;;;;;;;;;;3.40;99.90;4.10;99038.00;;;;336185;28;87957;-87
2021/12/04 00:57:33;;;;;;;;;;;3.40;99.90;4.10;99039.00;;;;332872;29;83340;-87
2021/12/04 00:57:45;;;;;;;;;;;3.40;99.90;4.10;99043.00;;;;333575;29;91718;-87
2021/12/04 00:57:57;;;;;;;;;;;3.40;99.90;4.10;99030.00;;;;333849;29;83601;-87
2021/12/04 00:58:09;;;;;;;;;;;3.40;99.90;4.10;99039.00;;;;336277;28;88043;-87
2021/12/04 00:58:20;;;;;;;;;;;3.40;99.90;4.10;99039.00;;;;333744;29;83513;-87
2021/12/04 00:58:33;;;;;;;;;;;3.40;99.90;4.10;99039.00;;;;336303;28;89663;-87
2021/12/04 00:58:44;;;;;;;;;;;3.40;99.90;4.10;99040.00;;;;339099;28;83623;-88
2021/12/04 00:58:56;;;;;;;;;;;3.40;99.90;4.10;99037.00;;;;337613;28;89348;-88
2021/12/04 00:59:08;;;;;;;;;;;3.40;99.90;4.10;99038.00;;;;338166;28;82272;-88
2021/12/04 00:59:19;;;;;;;;;;;3.40;99.90;4.10;99039.00;;;;337554;28;87930;-87
2021/12/04 00:59:31;;;;;;;;;;;3.50;99.90;4.10;99035.00;;;;339452;28;82492;-87
2021/12/04 00:59:43;;;;;;;;;;;3.50;99.90;4.10;99033.00;;;;336191;28;90191;-87
2021/12/04 00:59:55;;;;;;;;;;;3.40;99.90;4.10;99038.00;;;;337976;28;82378;-88
2021/12/04 01:00:08;;;;;;;;;;;3.40;99.90;4.10;99034.00;;;;338735;28;90451;-88
2021/12/04 01:00:20;;;;;;;;;;;3.40;99.90;4.00;99032.00;;;;339250;28;83572;-87
2021/12/04 01:00:31;;;;;;;;;;;3.40;99.90;4.00;99037.00;;;;337282;28;88125;-87
2021/12/04 01:00:43;;;;;;;;;;;3.50;99.90;4.00;99042.00;;;;335530;29;83139;-87
2021/12/04 01:00:55;;;;;;;;;;;3.50;99.90;4.00;99038.00;;;;334916;29;89171;-87
2021/12/04 01:01:08;;;;;;;;;;;3.50;99.90;4.00;99026.00;;;;335330;29;83507;-87
2021/12/04 01:01:20;;;;;;;;;;;3.50;99.90;4.00;99030.00;;;;336314;28;87739;-85
2021/12/04 01:01:32;;;;;;;;;;;3.40;99.90;4.00;99034.00;;;;334200;29;82417;-87
2021/12/04 01:01:44;;;;;;;;;;;3.40;99.90;4.10;99034.00;;;;336291;28;89433;-87
2021/12/04 01:01:56;;;;;;;;;;;3.40;99.90;4.10;99034.00;;;;338066;28;83370;-87
2021/12/04 01:02:08;;;;;;;;;;;3.40;99.90;4.10;99032.00;;;;338862;28;88962;-87
2021/12/04 01:02:20;;;;;;;;;;;3.50;99.90;4.10;99038.00;;;;339301;28;83241;-87
2021/12/04 01:02:32;;;;;;;;;;;3.40;99.90;4.10;99030.00;;;;337619;28;89488;-87
2021/12/04 01:02:45;;;;;;;;;;;3.40;99.90;4.10;99047.00;;;;335496;29;83512;-87
2021/12/04 01:02:57;;;;;;;;;;;3.40;99.90;4.20;99053.00;;;;334626;29;88478;-88
2021/12/04 01:03:09;;;;;;;;;;;3.50;99.90;4.10;99038.00;;;;336573;28;83353;-87
2021/12/04 01:03:20;;;;;;;;;;;3.40;99.90;4.10;99036.00;;;;338692;28;89637;-87
2021/12/04 01:03:35;;;;;;;;;;;3.50;99.90;4.10;99035.00;;;;335433;29;83198;-88
2021/12/04 01:03:47;;;;;;;;;;;3.40;99.90;4.10;99047.00;;;;336168;28;90222;-87
2021/12/04 01:03:59;;;;;;;;;;;3.40;99.90;4.10;99032.00;;;;336784;28;82485;-88
2021/12/04 01:04:12;;;;;;;;;;;3.50;99.90;4.10;99041.00;;;;334863;29;88743;-85
2021/12/04 01:04:24;;;;;;;;;;;3.50;99.90;4.10;99028.00;;;;335423;29;83441;-87
2021/12/04 01:04:36;;;;;;;;;;;3.40;99.90;4.10;99047.00;;;;337505;28;88707;-88
2021/12/04 01:04:47;;;;;;;;;;;3.50;99.90;4.00;99034.00;;;;335502;29;82463;-88
2021/12/04 01:04:59;;;;;;;;;;;3.40;99.90;4.00;99029.00;;;;332508;29;89537;-88
2021/12/04 01:05:11;;;;;;;;;;;3.40;99.90;4.00;99031.00;;;;332838;29;83343;-87
2021/12/04 01:05:23;;;;;;;;;;;3.40;99.90;4.00;99041.00;;;;335102;29;89125;-87
2021/12/04 01:05:34;;;;;;;;;;;3.40;99.90;4.00;99041.00;;;;334045;29;82624;-87
2021/12/04 01:05:46;;;;;;;;;;;3.40;99.90;4.00;99033.00;;;;332292;29;90669;-88
2021/12/04 01:05:58;;;;;;;;;;;3.40;99.90;4.00;99036.00;;;;336761;28;83268;-87
2021/12/04 01:06:10;;;;;;;;;;;3.40;99.90;4.00;99031.00;;;;337572;28;90606;-87
2021/12/04 01:06:36;;;;;;;;;;;3.40;99.90;4.10;99039.00;;;;330906;29;83341;-88
2021/12/04 01:06:48;;;;;;;;;;;3.40;99.90;4.10;99042.00;;;;332552;29;89432;-87
2021/12/04 01:06:59;;;;;;;;;;;3.40;99.90;4.10;99032.00;;;;335443;29;83368;-88
2021/12/04 01:07:11;;;;;;;;;;;3.40;99.90;4.00;99029.00;;;;335042;29;88063;-87
2021/12/04 01:07:25;;;;;;;;;;;3.40;99.90;4.10;99036.00;;;;334145;29;83511;-88
2021/12/04 01:07:37;;;;;;;;;;;3.40;99.90;4.10;99030.00;;;;333710;29;89591;-87
2021/12/04 01:07:49;;;;;;;;;;;3.40;99.90;4.10;99029.00;;;;337105;28;83363;-88
2021/12/04 01:08:00;;;;;;;;;;;3.40;99.90;4.10;99027.00;;;;336364;28;89639;-87
2021/12/04 01:08:12;;;;;;;;;;;3.40;99.90;4.10;99019.00;;;;335474;29;82314;-87
2021/12/04 01:08:24;;;;;;;;;;;3.40;99.90;4.00;99024.00;;;;334975;29;90226;-87
2021/12/04 01:08:36;;;;;;;;;;;3.40;99.90;4.00;99016.00;;;;336542;28;82590;-87
2021/12/04 01:08:48;;;;;;;;;;;3.40;99.90;4.00;99024.00;;;;337454;28;91131;-87
2021/12/04 01:09:00;;;;;;;;;;;3.40;99.90;4.10;99023.00;;;;339487;28;83358;-87
2021/12/04 01:09:13;;;;;;;;;;;3.40;99.90;4.10;99012.00;;;;335152;29;88759;-87
2021/12/04 01:09:25;;;;;;;;;;;3.40;99.90;4.10;99026.00;;;;338060;28;82384;-87
2021/12/04 01:09:37;;;;;;;;;;;3.40;99.90;4.10;99034.00;;;;337686;28;87503;-87
2021/12/04 01:09:48;;;;;;;;;;;3.40;99.90;4.00;99020.00;;;;336447;28;83444;-88
2021/12/04 01:10:01;;;;;;;;;;;3.40;99.90;4.00;99033.00;;;;335895;28;93636;-88
2021/12/04 01:10:12;;;;;;;;;;;3.40;99.90;4.10;99023.00;;;;335382;29;83507;-88
2021/12/04 01:10:24;;;;;;;;;;;3.40;99.90;4.10;99023.00;;;;337583;28;90262;-86
2021/12/04 01:10:36;;;;;;;;;;;3.40;99.90;4.10;99022.00;;;;335335;29;83347;-87
2021/12/04 01:10:48;;;;;;;;;;;3.40;99.90;4.10;99022.00;;;;336377;28;87869;-88
2021/12/04 01:11:02;;;;;;;;;;;3.40;99.90;4.10;99011.00;;;;336708;28;83501;-88
2021/12/04 01:11:13;;;;;;;;;;;3.40;99.90;4.10;99023.00;;;;336360;28;89471;-87
2021/12/04 01:11:25;;;;;;;;;;;3.40;99.90;4.00;99020.00;;;;336738;28;83177;-87
2021/12/04 01:11:37;;;;;;;;;;;3.40;99.90;4.00;99018.00;;;;339071;28;87631;-87
2021/12/04 01:11:50;;;;;;;;;;;3.40;99.90;4.00;99023.00;;;;338051;28;83365;-87
2021/12/04 01:12:02;;;;;;;;;;;3.40;99.90;4.00;99021.00;;;;333581;29;90448;-87
2021/12/04 01:12:14;;;;;;;;;;;3.40;99.90;4.00;99025.00;;;;338045;28;83330;-87
2021/12/04 01:12:26;;;;;;;;;;;3.40;99.90;4.00;99019.00;;;;337055;28;91537;-87
2021/12/04 01:12:38;;;;;;;;;;;3.40;99.90;4.10;99027.00;;;;336505;28;82400;-87
2021/12/04 01:12:50;;;;;;;;;;;3.40;99.90;4.10;99032.00;;;;337619;28;88778;-87
2021/12/04 01:13:06;;;;;;;;;;;3.40;99.90;4.10;99029.00;;;;336573;28;82277;-86
2021/12/04 01:13:18;;;;;;;;;;;3.40;99.90;4.10;99032.00;;;;336271;28;87840;-87
2021/12/04 01:13:30;;;;;;;;;;;3.40;99.90;4.10;99026.00;;;;338015;28;83750;-87
2021/12/04 01:13:42;;;;;;;;;;;3.40;99.90;4.10;99025.00;;;;337644;28;88108;-87
2021/12/04 01:13:54;;;;;;;;;;;3.40;99.90;4.10;99028.00;;;;338022;28;83426;-88
2021/12/04 01:14:07;;;;;;;;;;;3.40;99.90;4.00;99034.00;;;;339039;28;86603;-88
2021/12/04 01:14:23;;;;;;;;;;;3.40;99.90;4.00;99027.00;;;;338061;28;83122;-88
2021/12/04 01:14:35;;;;;;;;;;;3.40;99.90;4.10;99038.00;;;;337477;28;90065;-87
2021/12/04 01:14:47;;;;;;;;;;;3.50;99.90;4.10;99035.00;;;;336718;28;83263;-88
2021/12/04 01:14:59;;;;;;;;;;;3.40;99.90;4.10;99039.00;;;;336177;28;90394;-87
2021/12/04 01:15:10;;;;;;;;;;;3.40;99.90;4.10;99035.00;;;;338086;28;83377;-89
2021/12/04 01:15:22;;;;;;;;;;;3.40;99.90;4.10;99035.00;;;;338901;28;88368;-87
2021/12/04 01:15:34;;;;;;;;;;;3.40;99.90;4.10;99022.00;;;;340403;28;83459;-88
2021/12/04 01:15:46;;;;;;;;;;;3.50;99.90;4.10;99018.00;;;;337660;28;88466;-88
2021/12/04 01:15:58;;;;;;;;;;;3.50;99.90;4.10;99035.00;;;;339341;28;82430;-88
2021/12/04 01:16:11;;;;;;;;;;;3.40;99.90;4.10;99033.00;;;;340329;28;88675;-88
2021/12/04 01:16:23;;;;;;;;;;;3.50;99.90;4.20;99034.00;;;;340777;28;83301;-87
2021/12/04 01:16:35;;;;;;;;;;;3.40;99.90;4.10;99029.00;;;;338798;28;90152;-87
2021/12/04 01:16:47;;;;;;;;;;;3.50;99.90;4.20;99030.00;;;;339431;28;83333;-88
2021/12/04 01:16:59;;;;;;;;;;;3.50;99.90;4.10;99037.00;;;;336358;28;89550;-88
2021/12/04 01:17:11;;;;;;;;;;;3.50;99.90;4.10;99025.00;;;;336608;28;83421;-87
2021/12/04 01:17:23;;;;;;;;;;;3.50;99.90;4.20;99031.00;;;;337572;28;89484;-89
2021/12/04 01:17:35;;;;;;;;;;;3.50;99.90;4.10;99029.00;;;;339406;28;83340;-87
2021/12/04 01:17:46;;;;;;;;;;;3.50;99.90;4.10;99035.00;;;;340233;28;88410;-88
2021/12/04 01:17:58;;;;;;;;;;;3.50;99.90;4.10;99033.00;;;;339137;28;83495;-88
2021/12/04 01:18:10;;;;;;;;;;;3.50;99.90;4.10;99023.00;;;;339010;28;89296;-88
2021/12/04 01:18:22;;;;;;;;;;;3.50;99.90;4.20;99039.00;;;;338385;28;83884;-88